sensor_id;sensor_type;location;lat;lon;timestamp;P1;durP1;ratioP1;P2;durP2;ratioP2
25129;SDS011;13308;50.860;13.664;2023-05-29T05:31:34;5.20;;;1.73;;
25129;SDS011;13308;50.860;13.664;2023-05-29T05:33:59;1.88;;;1.70;;
25129;SDS011;13308;50.860;13.664;2023-05-29T05:36:25;2.80;;;1.95;;
25129;SDS011;13308;50.860;13.664;2023-05-29T05:38:56;2.30;;;2.00;;
25129;SDS011;13308;50.860;13.664;2023-05-29T05:41:22;4.63;;;2.83;;
25129;SDS011;13308;50.860;13.664;2023-05-29T05:43:48;3.25;;;2.10;;
25129;SDS011;13308;50.860;13.664;2023-05-29T05:46:21;2.20;;;1.92;;
25129;SDS011;13308;50.860;13.664;2023-05-29T05:48:46;2.20;;;1.95;;
25129;SDS011;13308;50.860;13.664;2023-05-29T05:51:12;2.15;;;1.95;;
25129;SDS011;13308;50.860;13.664;2023-05-29T05:53:38;3.45;;;1.90;;
25129;SDS011;13308;50.860;13.664;2023-05-29T05:56:04;3.65;;;2.00;;
25129;SDS011;13308;50.860;13.664;2023-05-29T05:58:30;2.25;;;1.70;;
25129;SDS011;13308;50.860;13.664;2023-05-29T06:00:56;3.38;;;2.10;;
25129;SDS011;13308;50.860;13.664;2023-05-29T06:03:22;2.22;;;2.03;;
25129;SDS011;13308;50.860;13.664;2023-05-29T06:05:56;2.38;;;2.15;;
25129;SDS011;13308;50.860;13.664;2023-05-29T06:08:22;2.33;;;1.83;;
25129;SDS011;13308;50.860;13.664;2023-05-29T06:10:48;2.97;;;2.45;;
25129;SDS011;13308;50.860;13.664;2023-05-29T06:13:14;2.75;;;2.15;;
25129;SDS011;13308;50.860;13.664;2023-05-29T06:15:46;3.13;;;2.17;;
25129;SDS011;13308;50.860;13.664;2023-05-29T06:18:12;3.47;;;2.85;;
25129;SDS011;13308;50.860;13.664;2023-05-29T06:20:39;9.80;;;3.00;;
25129;SDS011;13308;50.860;13.664;2023-05-29T06:23:04;2.80;;;2.50;;
25129;SDS011;13308;50.860;13.664;2023-05-29T06:25:31;3.08;;;2.40;;
25129;SDS011;13308;50.860;13.664;2023-05-29T06:27:59;3.88;;;2.75;;
25129;SDS011;13308;50.860;13.664;2023-05-29T06:30:25;2.70;;;2.15;;
25129;SDS011;13308;50.860;13.664;2023-05-29T06:32:51;2.88;;;2.20;;
25129;SDS011;13308;50.860;13.664;2023-05-29T06:35:16;2.35;;;2.05;;
25129;SDS011;13308;50.860;13.664;2023-05-29T06:37:42;3.17;;;2.35;;
25129;SDS011;13308;50.860;13.664;2023-05-29T06:40:07;2.40;;;2.20;;
25129;SDS011;13308;50.860;13.664;2023-05-29T06:42:34;4.88;;;2.42;;
25129;SDS011;13308;50.860;13.664;2023-05-29T06:45:08;3.35;;;2.30;;
25129;SDS011;13308;50.860;13.664;2023-05-29T06:47:33;2.65;;;2.10;;
25129;SDS011;13308;50.860;13.664;2023-05-29T06:49:59;4.45;;;3.80;;
25129;SDS011;13308;50.860;13.664;2023-05-29T06:52:25;6.05;;;2.60;;
25129;SDS011;13308;50.860;13.664;2023-05-29T06:55:21;2.83;;;2.25;;
25129;SDS011;13308;50.860;13.664;2023-05-29T06:57:46;2.78;;;2.25;;
25129;SDS011;13308;50.860;13.664;2023-05-29T07:00:12;2.83;;;2.25;;
25129;SDS011;13308;50.860;13.664;2023-05-29T07:02:44;3.60;;;2.65;;
25129;SDS011;13308;50.860;13.664;2023-05-29T07:05:10;2.53;;;2.33;;
25129;SDS011;13308;50.860;13.664;2023-05-29T07:07:36;7.50;;;2.30;;
25129;SDS011;13308;50.860;13.664;2023-05-29T07:10:02;4.25;;;2.55;;
25129;SDS011;13308;50.860;13.664;2023-05-29T07:12:28;2.80;;;2.25;;
25129;SDS011;13308;50.860;13.664;2023-05-29T07:14:53;4.15;;;2.38;;
25129;SDS011;13308;50.860;13.664;2023-05-29T07:17:19;3.03;;;2.70;;
25129;SDS011;13308;50.860;13.664;2023-05-29T07:19:44;2.47;;;2.28;;
25129;SDS011;13308;50.860;13.664;2023-05-29T07:22:09;5.28;;;2.15;;
25129;SDS011;13308;50.860;13.664;2023-05-29T07:24:36;2.65;;;2.45;;
25129;SDS011;13308;50.860;13.664;2023-05-29T07:27:03;2.67;;;2.30;;
25129;SDS011;13308;50.860;13.664;2023-05-29T07:29:29;2.97;;;2.53;;
25129;SDS011;13308;50.860;13.664;2023-05-29T07:31:54;3.67;;;2.42;;
25129;SDS011;13308;50.860;13.664;2023-05-29T07:34:21;3.88;;;2.83;;
25129;SDS011;13308;50.860;13.664;2023-05-29T07:37:00;2.95;;;2.58;;
25129;SDS011;13308;50.860;13.664;2023-05-29T07:39:28;2.97;;;2.20;;
25129;SDS011;13308;50.860;13.664;2023-05-29T07:41:56;2.63;;;1.98;;
25129;SDS011;13308;50.860;13.664;2023-05-29T07:44:21;2.75;;;1.67;;
25129;SDS011;13308;50.860;13.664;2023-05-29T07:46:49;2.65;;;2.10;;
25129;SDS011;13308;50.860;13.664;2023-05-29T07:49:34;2.92;;;2.03;;
25129;SDS011;13308;50.860;13.664;2023-05-29T07:52:04;3.65;;;2.28;;
25129;SDS011;13308;50.860;13.664;2023-05-29T07:54:31;2.53;;;2.20;;
25129;SDS011;13308;50.860;13.664;2023-05-29T07:56:58;3.83;;;2.40;;
25129;SDS011;13308;50.860;13.664;2023-05-29T07:59:24;3.78;;;2.33;;
25129;SDS011;13308;50.860;13.664;2023-05-29T08:01:50;2.42;;;2.20;;
25129;SDS011;13308;50.860;13.664;2023-05-29T08:04:36;2.50;;;2.10;;
25129;SDS011;13308;50.860;13.664;2023-05-29T08:07:02;3.20;;;2.40;;
25129;SDS011;13308;50.860;13.664;2023-05-29T08:09:29;5.32;;;2.50;;
25129;SDS011;13308;50.860;13.664;2023-05-29T08:11:55;2.50;;;2.30;;
25129;SDS011;13308;50.860;13.664;2023-05-29T08:14:20;5.53;;;2.67;;
25129;SDS011;13308;50.860;13.664;2023-05-29T08:16:46;2.65;;;2.00;;
25129;SDS011;13308;50.860;13.664;2023-05-29T08:19:12;4.40;;;2.63;;
25129;SDS011;13308;50.860;13.664;2023-05-29T08:21:37;3.60;;;2.03;;
25129;SDS011;13308;50.860;13.664;2023-05-29T08:24:03;3.20;;;2.70;;
25129;SDS011;13308;50.860;13.664;2023-05-29T08:26:31;2.90;;;2.60;;
25129;SDS011;13308;50.860;13.664;2023-05-29T08:28:56;2.75;;;2.33;;
25129;SDS011;13308;50.860;13.664;2023-05-29T08:31:22;3.28;;;2.63;;
25129;SDS011;13308;50.860;13.664;2023-05-29T08:33:50;4.88;;;2.70;;
25129;SDS011;13308;50.860;13.664;2023-05-29T08:36:16;4.63;;;2.63;;
25129;SDS011;13308;50.860;13.664;2023-05-29T08:38:42;6.03;;;3.08;;
25129;SDS011;13308;50.860;13.664;2023-05-29T08:41:07;3.33;;;2.65;;
25129;SDS011;13308;50.860;13.664;2023-05-29T08:43:34;5.90;;;2.53;;
25129;SDS011;13308;50.860;13.664;2023-05-29T08:46:00;4.95;;;2.80;;
25129;SDS011;13308;50.860;13.664;2023-05-29T08:48:27;5.75;;;2.90;;
25129;SDS011;13308;50.860;13.664;2023-05-29T08:50:54;4.75;;;2.90;;
25129;SDS011;13308;50.860;13.664;2023-05-29T08:53:24;3.03;;;2.42;;
25129;SDS011;13308;50.860;13.664;2023-05-29T08:55:50;4.38;;;2.53;;
25129;SDS011;13308;50.860;13.664;2023-05-29T08:58:17;3.90;;;2.45;;
25129;SDS011;13308;50.860;13.664;2023-05-29T09:00:47;5.65;;;2.60;;
25129;SDS011;13308;50.860;13.664;2023-05-29T09:03:13;3.83;;;2.05;;
25129;SDS011;13308;50.860;13.664;2023-05-29T09:05:39;5.72;;;2.47;;
25129;SDS011;13308;50.860;13.664;2023-05-29T09:08:06;6.03;;;2.60;;
25129;SDS011;13308;50.860;13.664;2023-05-29T09:10:33;4.90;;;2.50;;
25129;SDS011;13308;50.860;13.664;2023-05-29T09:12:59;5.00;;;2.42;;
25129;SDS011;13308;50.860;13.664;2023-05-29T09:15:25;2.35;;;2.05;;
25129;SDS011;13308;50.860;13.664;2023-05-29T09:20:17;5.72;;;2.75;;
25129;SDS011;13308;50.860;13.664;2023-05-29T09:22:56;2.70;;;2.40;;
25129;SDS011;13308;50.860;13.664;2023-05-29T09:25:23;3.00;;;2.50;;
25129;SDS011;13308;50.860;13.664;2023-05-29T09:27:58;3.72;;;2.40;;
25129;SDS011;13308;50.860;13.664;2023-05-29T09:30:31;3.13;;;2.13;;
25129;SDS011;13308;50.860;13.664;2023-05-29T09:32:58;3.08;;;2.22;;
25129;SDS011;13308;50.860;13.664;2023-05-29T09:35:24;2.83;;;2.50;;
25129;SDS011;13308;50.860;13.664;2023-05-29T09:37:49;3.38;;;2.58;;
25129;SDS011;13308;50.860;13.664;2023-05-29T09:40:15;4.03;;;2.45;;
25129;SDS011;13308;50.860;13.664;2023-05-29T09:42:40;3.22;;;2.50;;
25129;SDS011;13308;50.860;13.664;2023-05-29T09:45:06;3.92;;;2.88;;
25129;SDS011;13308;50.860;13.664;2023-05-29T09:47:35;3.35;;;2.78;;
25129;SDS011;13308;50.860;13.664;2023-05-29T09:50:00;3.03;;;2.65;;
25129;SDS011;13308;50.860;13.664;2023-05-29T09:52:26;4.20;;;3.08;;
25129;SDS011;13308;50.860;13.664;2023-05-29T09:54:55;2.72;;;2.53;;
25129;SDS011;13308;50.860;13.664;2023-05-29T09:57:21;5.75;;;2.72;;
25129;SDS011;13308;50.860;13.664;2023-05-29T09:59:48;6.40;;;2.70;;
25129;SDS011;13308;50.860;13.664;2023-05-29T10:02:16;3.55;;;2.63;;
25129;SDS011;13308;50.860;13.664;2023-05-29T10:04:42;4.18;;;2.97;;
25129;SDS011;13308;50.860;13.664;2023-05-29T10:07:26;3.72;;;2.90;;
25129;SDS011;13308;50.860;13.664;2023-05-29T10:09:55;3.65;;;3.13;;
25129;SDS011;13308;50.860;13.664;2023-05-29T10:12:25;3.35;;;2.70;;
25129;SDS011;13308;50.860;13.664;2023-05-29T10:14:53;3.58;;;2.80;;
25129;SDS011;13308;50.860;13.664;2023-05-29T10:17:22;2.72;;;2.50;;
25129;SDS011;13308;50.860;13.664;2023-05-29T10:19:50;4.85;;;2.95;;
25129;SDS011;13308;50.860;13.664;2023-05-29T10:22:17;4.43;;;3.10;;
25129;SDS011;13308;50.860;13.664;2023-05-29T10:24:45;4.53;;;2.97;;
25129;SDS011;13308;50.860;13.664;2023-05-29T10:27:13;3.17;;;2.85;;
25129;SDS011;13308;50.860;13.664;2023-05-29T10:29:43;5.85;;;3.22;;
25129;SDS011;13308;50.860;13.664;2023-05-29T10:35:24;3.88;;;3.33;;
25129;SDS011;13308;50.860;13.664;2023-05-29T10:38:02;2.70;;;2.50;;
25129;SDS011;13308;50.860;13.664;2023-05-29T10:40:38;3.38;;;3.08;;
25129;SDS011;13308;50.860;13.664;2023-05-29T10:43:03;3.90;;;2.90;;
25129;SDS011;13308;50.860;13.664;2023-05-29T10:50:41;6.78;;;3.00;;
25129;SDS011;13308;50.860;13.664;2023-05-29T10:53:10;3.20;;;2.90;;
25129;SDS011;13308;50.860;13.664;2023-05-29T10:55:40;3.13;;;2.60;;
25129;SDS011;13308;50.860;13.664;2023-05-29T10:58:06;3.50;;;2.67;;
25129;SDS011;13308;50.860;13.664;2023-05-29T11:00:32;4.07;;;3.63;;
25129;SDS011;13308;50.860;13.664;2023-05-29T11:03:02;5.90;;;3.20;;
25129;SDS011;13308;50.860;13.664;2023-05-29T11:05:28;3.10;;;2.80;;
25129;SDS011;13308;50.860;13.664;2023-05-29T11:07:57;2.85;;;2.55;;
25129;SDS011;13308;50.860;13.664;2023-05-29T11:10:40;3.50;;;2.75;;
25129;SDS011;13308;50.860;13.664;2023-05-29T11:13:11;3.95;;;2.72;;
25129;SDS011;13308;50.860;13.664;2023-05-29T11:16:03;2.70;;;2.50;;
25129;SDS011;13308;50.860;13.664;2023-05-29T11:18:29;2.70;;;2.50;;
25129;SDS011;13308;50.860;13.664;2023-05-29T11:20:57;3.17;;;2.88;;
25129;SDS011;13308;50.860;13.664;2023-05-29T11:23:26;2.80;;;2.60;;
25129;SDS011;13308;50.860;13.664;2023-05-29T11:25:56;2.50;;;2.30;;
25129;SDS011;13308;50.860;13.664;2023-05-29T11:28:22;4.85;;;2.90;;
25129;SDS011;13308;50.860;13.664;2023-05-29T11:30:47;3.55;;;2.63;;
25129;SDS011;13308;50.860;13.664;2023-05-29T11:33:22;2.60;;;2.40;;
25129;SDS011;13308;50.860;13.664;2023-05-29T11:35:57;4.57;;;2.40;;
25129;SDS011;13308;50.860;13.664;2023-05-29T11:38:24;4.43;;;2.65;;
25129;SDS011;13308;50.860;13.664;2023-05-29T11:40:50;2.80;;;2.53;;
25129;SDS011;13308;50.860;13.664;2023-05-29T11:43:17;2.60;;;2.40;;
25129;SDS011;13308;50.860;13.664;2023-05-29T11:45:42;3.53;;;2.78;;
25129;SDS011;13308;50.860;13.664;2023-05-29T11:48:07;2.53;;;2.33;;
25129;SDS011;13308;50.860;13.664;2023-05-29T11:50:33;3.85;;;2.72;;
25129;SDS011;13308;50.860;13.664;2023-05-29T11:52:59;2.70;;;2.50;;
25129;SDS011;13308;50.860;13.664;2023-05-29T11:55:26;2.92;;;2.60;;
25129;SDS011;13308;50.860;13.664;2023-05-29T11:57:56;3.65;;;2.72;;
25129;SDS011;13308;50.860;13.664;2023-05-29T12:00:25;4.20;;;2.88;;
25129;SDS011;13308;50.860;13.664;2023-05-29T12:02:51;4.40;;;3.00;;
25129;SDS011;13308;50.860;13.664;2023-05-29T12:05:17;2.92;;;2.45;;
25129;SDS011;13308;50.860;13.664;2023-05-29T12:07:47;4.82;;;3.58;;
25129;SDS011;13308;50.860;13.664;2023-05-29T12:10:13;3.10;;;2.90;;
25129;SDS011;13308;50.860;13.664;2023-05-29T12:12:40;6.45;;;3.40;;
25129;SDS011;13308;50.860;13.664;2023-05-29T12:15:06;3.33;;;2.85;;
25129;SDS011;13308;50.860;13.664;2023-05-29T12:17:33;3.53;;;3.03;;
25129;SDS011;13308;50.860;13.664;2023-05-29T12:19:59;4.05;;;3.10;;
25129;SDS011;13308;50.860;13.664;2023-05-29T12:22:34;5.82;;;3.67;;
25129;SDS011;13308;50.860;13.664;2023-05-29T12:27:34;3.20;;;2.90;;
25129;SDS011;13308;50.860;13.664;2023-05-29T12:30:06;3.00;;;2.78;;
25129;SDS011;13308;50.860;13.664;2023-05-29T12:32:34;6.13;;;3.40;;
25129;SDS011;13308;50.860;13.664;2023-05-29T12:35:00;5.10;;;3.53;;
25129;SDS011;13308;50.860;13.664;2023-05-29T12:37:28;3.70;;;3.05;;
25129;SDS011;13308;50.860;13.664;2023-05-29T12:42:59;3.63;;;3.33;;
25129;SDS011;13308;50.860;13.664;2023-05-29T12:45:29;3.40;;;3.08;;
25129;SDS011;13308;50.860;13.664;2023-05-29T12:47:56;2.70;;;2.50;;
25129;SDS011;13308;50.860;13.664;2023-05-29T12:50:26;5.88;;;3.00;;
25129;SDS011;13308;50.860;13.664;2023-05-29T12:53:13;3.72;;;3.10;;
25129;SDS011;13308;50.860;13.664;2023-05-29T12:55:42;5.45;;;3.13;;
25129;SDS011;13308;50.860;13.664;2023-05-29T12:58:09;3.80;;;3.30;;
25129;SDS011;13308;50.860;13.664;2023-05-29T13:00:36;4.15;;;3.05;;
25129;SDS011;13308;50.860;13.664;2023-05-29T13:03:03;3.63;;;3.33;;
25129;SDS011;13308;50.860;13.664;2023-05-29T13:05:29;3.35;;;2.97;;
25129;SDS011;13308;50.860;13.664;2023-05-29T13:07:55;3.17;;;2.88;;
25129;SDS011;13308;50.860;13.664;2023-05-29T13:10:20;4.05;;;2.92;;
25129;SDS011;13308;50.860;13.664;2023-05-29T13:12:46;3.30;;;2.95;;
25129;SDS011;13308;50.860;13.664;2023-05-29T13:15:13;3.25;;;2.72;;
25129;SDS011;13308;50.860;13.664;2023-05-29T13:17:39;3.40;;;3.10;;
25129;SDS011;13308;50.860;13.664;2023-05-29T13:20:14;3.25;;;2.90;;
25129;SDS011;13308;50.860;13.664;2023-05-29T13:22:40;4.13;;;3.22;;
25129;SDS011;13308;50.860;13.664;2023-05-29T13:25:08;3.20;;;2.90;;
25129;SDS011;13308;50.860;13.664;2023-05-29T13:27:35;3.80;;;3.40;;
25129;SDS011;13308;50.860;13.664;2023-05-29T13:30:02;3.17;;;2.95;;
25129;SDS011;13308;50.860;13.664;2023-05-29T13:32:28;4.63;;;2.78;;
25129;SDS011;13308;50.860;13.664;2023-05-29T13:34:53;3.35;;;3.08;;
25129;SDS011;13308;50.860;13.664;2023-05-29T13:37:19;3.13;;;2.83;;
25129;SDS011;13308;50.860;13.664;2023-05-29T13:39:44;3.08;;;2.75;;
25129;SDS011;13308;50.860;13.664;2023-05-29T13:42:09;4.00;;;2.95;;
25129;SDS011;13308;50.860;13.664;2023-05-29T13:44:36;3.38;;;3.10;;
25129;SDS011;13308;50.860;13.664;2023-05-29T13:47:02;3.70;;;3.40;;
25129;SDS011;13308;50.860;13.664;2023-05-29T13:49:27;3.55;;;3.20;;
25129;SDS011;13308;50.860;13.664;2023-05-29T13:51:52;3.17;;;2.88;;
25129;SDS011;13308;50.860;13.664;2023-05-29T13:54:18;3.72;;;3.03;;
25129;SDS011;13308;50.860;13.664;2023-05-29T13:56:43;4.53;;;3.03;;
25129;SDS011;13308;50.860;13.664;2023-05-29T13:59:08;5.65;;;3.45;;
25129;SDS011;13308;50.860;13.664;2023-05-29T14:01:34;3.30;;;3.00;;
25129;SDS011;13308;50.860;13.664;2023-05-29T14:03:59;3.65;;;3.30;;
25129;SDS011;13308;50.860;13.664;2023-05-29T14:06:25;3.55;;;3.00;;
25129;SDS011;13308;50.860;13.664;2023-05-29T14:08:51;3.20;;;2.80;;
25129;SDS011;13308;50.860;13.664;2023-05-29T14:11:16;3.63;;;2.95;;
25129;SDS011;13308;50.860;13.664;2023-05-29T14:13:42;4.18;;;3.20;;
25129;SDS011;13308;50.860;13.664;2023-05-29T14:16:07;3.75;;;2.85;;
25129;SDS011;13308;50.860;13.664;2023-05-29T14:18:32;3.50;;;3.05;;
25129;SDS011;13308;50.860;13.664;2023-05-29T14:20:58;2.95;;;2.65;;
25129;SDS011;13308;50.860;13.664;2023-05-29T14:23:23;2.83;;;2.60;;
25129;SDS011;13308;50.860;13.664;2023-05-29T14:25:48;2.97;;;2.78;;
25129;SDS011;13308;50.860;13.664;2023-05-29T14:28:14;3.08;;;2.78;;
25129;SDS011;13308;50.860;13.664;2023-05-29T14:30:39;3.30;;;3.00;;
25129;SDS011;13308;50.860;13.664;2023-05-29T14:33:04;2.70;;;2.50;;
25129;SDS011;13308;50.860;13.664;2023-05-29T14:35:30;3.17;;;2.97;;
25129;SDS011;13308;50.860;13.664;2023-05-29T14:37:56;4.18;;;3.00;;
25129;SDS011;13308;50.860;13.664;2023-05-29T14:40:21;5.65;;;3.13;;
25129;SDS011;13308;50.860;13.664;2023-05-29T14:42:47;4.72;;;3.60;;
25129;SDS011;13308;50.860;13.664;2023-05-29T14:45:12;3.20;;;2.90;;
25129;SDS011;13308;50.860;13.664;2023-05-29T14:47:38;3.08;;;2.80;;
25129;SDS011;13308;50.860;13.664;2023-05-29T14:50:07;3.58;;;3.10;;
25129;SDS011;13308;50.860;13.664;2023-05-29T14:52:33;3.15;;;2.85;;
25129;SDS011;13308;50.860;13.664;2023-05-29T14:55:00;4.60;;;3.25;;
25129;SDS011;13308;50.860;13.664;2023-05-29T14:57:26;3.75;;;3.35;;
25129;SDS011;13308;50.860;13.664;2023-05-29T14:59:52;5.35;;;3.67;;
25129;SDS011;13308;50.860;13.664;2023-05-29T15:02:17;3.58;;;3.28;;
25129;SDS011;13308;50.860;13.664;2023-05-29T15:04:42;2.72;;;2.50;;
25129;SDS011;13308;50.860;13.664;2023-05-29T15:07:07;3.30;;;3.00;;
25129;SDS011;13308;50.860;13.664;2023-05-29T15:09:33;3.50;;;3.20;;
25129;SDS011;13308;50.860;13.664;2023-05-29T15:11:58;4.28;;;3.00;;
25129;SDS011;13308;50.860;13.664;2023-05-29T15:14:24;3.53;;;2.92;;
25129;SDS011;13308;50.860;13.664;2023-05-29T15:16:49;4.72;;;3.30;;
25129;SDS011;13308;50.860;13.664;2023-05-29T15:19:15;3.45;;;3.10;;
25129;SDS011;13308;50.860;13.664;2023-05-29T15:21:40;4.50;;;2.88;;
25129;SDS011;13308;50.860;13.664;2023-05-29T15:24:05;5.70;;;3.20;;
25129;SDS011;13308;50.860;13.664;2023-05-29T15:26:31;3.40;;;2.90;;
25129;SDS011;13308;50.860;13.664;2023-05-29T15:28:58;3.83;;;3.15;;
25129;SDS011;13308;50.860;13.664;2023-05-29T15:31:23;4.50;;;3.30;;
25129;SDS011;13308;50.860;13.664;2023-05-29T15:33:48;3.83;;;3.42;;
25129;SDS011;13308;50.860;13.664;2023-05-29T15:36:14;3.38;;;3.00;;
25129;SDS011;13308;50.860;13.664;2023-05-29T15:38:41;4.13;;;3.20;;
25129;SDS011;13308;50.860;13.664;2023-05-29T15:41:07;4.05;;;3.10;;
25129;SDS011;13308;50.860;13.664;2023-05-29T15:43:32;5.43;;;4.60;;
25129;SDS011;13308;50.860;13.664;2023-05-29T15:45:57;6.53;;;3.65;;
25129;SDS011;13308;50.860;13.664;2023-05-29T15:48:23;5.78;;;4.68;;
25129;SDS011;13308;50.860;13.664;2023-05-29T15:50:48;7.05;;;4.43;;
25129;SDS011;13308;50.860;13.664;2023-05-29T15:53:14;11.25;;;9.75;;
25129;SDS011;13308;50.860;13.664;2023-05-29T15:55:39;8.50;;;7.50;;
25129;SDS011;13308;50.860;13.664;2023-05-29T15:58:04;9.80;;;7.28;;
25129;SDS011;13308;50.860;13.664;2023-05-29T16:00:30;4.60;;;4.05;;
25129;SDS011;13308;50.860;13.664;2023-05-29T16:02:56;4.00;;;3.60;;
25129;SDS011;13308;50.860;13.664;2023-05-29T16:05:22;4.00;;;2.80;;
25129;SDS011;13308;50.860;13.664;2023-05-29T16:07:47;6.45;;;3.38;;
25129;SDS011;13308;50.860;13.664;2023-05-29T16:10:13;3.60;;;3.30;;
25129;SDS011;13308;50.860;13.664;2023-05-29T16:12:41;3.70;;;3.13;;
25129;SDS011;13308;50.860;13.664;2023-05-29T16:15:07;5.68;;;3.30;;
25129;SDS011;13308;50.860;13.664;2023-05-29T16:17:32;4.63;;;3.65;;
25129;SDS011;13308;50.860;13.664;2023-05-29T16:19:58;3.75;;;3.38;;
25129;SDS011;13308;50.860;13.664;2023-05-29T16:22:23;6.32;;;3.28;;
25129;SDS011;13308;50.860;13.664;2023-05-29T16:24:49;3.53;;;3.22;;
25129;SDS011;13308;50.860;13.664;2023-05-29T16:27:15;3.53;;;3.22;;
25129;SDS011;13308;50.860;13.664;2023-05-29T16:29:40;3.95;;;3.08;;
25129;SDS011;13308;50.860;13.664;2023-05-29T16:32:06;6.20;;;3.63;;
25129;SDS011;13308;50.860;13.664;2023-05-29T16:34:31;3.35;;;3.00;;
25129;SDS011;13308;50.860;13.664;2023-05-29T16:36:56;3.80;;;3.20;;
25129;SDS011;13308;50.860;13.664;2023-05-29T16:39:22;3.42;;;2.95;;
25129;SDS011;13308;50.860;13.664;2023-05-29T16:41:48;4.10;;;3.25;;
25129;SDS011;13308;50.860;13.664;2023-05-29T16:44:14;4.05;;;3.08;;
25129;SDS011;13308;50.860;13.664;2023-05-29T16:46:39;6.75;;;3.20;;
25129;SDS011;13308;50.860;13.664;2023-05-29T16:49:05;3.80;;;3.42;;
25129;SDS011;13308;50.860;13.664;2023-05-29T16:51:31;3.40;;;3.10;;
25129;SDS011;13308;50.860;13.664;2023-05-29T16:53:57;4.30;;;3.90;;
25129;SDS011;13308;50.860;13.664;2023-05-29T16:56:22;4.25;;;3.70;;
25129;SDS011;13308;50.860;13.664;2023-05-29T16:58:48;4.13;;;3.70;;
25129;SDS011;13308;50.860;13.664;2023-05-29T17:01:13;3.88;;;3.50;;
25129;SDS011;13308;50.860;13.664;2023-05-29T17:03:39;3.95;;;3.10;;
25129;SDS011;13308;50.860;13.664;2023-05-29T17:06:05;4.50;;;3.30;;
25129;SDS011;13308;50.860;13.664;2023-05-29T17:08:30;5.88;;;3.33;;
25129;SDS011;13308;50.860;13.664;2023-05-29T17:10:55;4.28;;;3.13;;
25129;SDS011;13308;50.860;13.664;2023-05-29T17:13:21;5.38;;;3.70;;
25129;SDS011;13308;50.860;13.664;2023-05-29T17:15:46;8.18;;;3.72;;
25129;SDS011;13308;50.860;13.664;2023-05-29T17:18:12;9.00;;;3.47;;
25129;SDS011;13308;50.860;13.664;2023-05-29T17:20:37;7.32;;;4.18;;
25129;SDS011;13308;50.860;13.664;2023-05-29T17:23:02;4.47;;;3.63;;
25129;SDS011;13308;50.860;13.664;2023-05-29T17:25:28;4.05;;;3.45;;
25129;SDS011;13308;50.860;13.664;2023-05-29T17:27:53;5.35;;;3.25;;
25129;SDS011;13308;50.860;13.664;2023-05-29T17:30:18;4.00;;;3.40;;
25129;SDS011;13308;50.860;13.664;2023-05-29T17:32:44;10.18;;;3.50;;
25129;SDS011;13308;50.860;13.664;2023-05-29T17:35:10;6.60;;;3.63;;
25129;SDS011;13308;50.860;13.664;2023-05-29T17:37:37;4.00;;;3.22;;
25129;SDS011;13308;50.860;13.664;2023-05-29T17:40:02;5.90;;;3.40;;
25129;SDS011;13308;50.860;13.664;2023-05-29T17:42:28;3.72;;;3.22;;
25129;SDS011;13308;50.860;13.664;2023-05-29T17:44:53;3.80;;;3.08;;
25129;SDS011;13308;50.860;13.664;2023-05-29T17:47:19;4.68;;;3.33;;
25129;SDS011;13308;50.860;13.664;2023-05-29T17:49:44;5.10;;;3.72;;
25129;SDS011;13308;50.860;13.664;2023-05-29T17:52:10;4.95;;;3.38;;
25129;SDS011;13308;50.860;13.664;2023-05-29T17:54:35;4.10;;;3.08;;
25129;SDS011;13308;50.860;13.664;2023-05-29T17:57:01;6.43;;;3.67;;
25129;SDS011;13308;50.860;13.664;2023-05-29T17:59:29;4.28;;;3.55;;
25129;SDS011;13308;50.860;13.664;2023-05-29T18:01:55;4.50;;;3.33;;
25129;SDS011;13308;50.860;13.664;2023-05-29T18:04:21;3.95;;;3.20;;
25129;SDS011;13308;50.860;13.664;2023-05-29T18:06:46;3.45;;;2.95;;
25129;SDS011;13308;50.860;13.664;2023-05-29T18:09:11;3.97;;;3.22;;
25129;SDS011;13308;50.860;13.664;2023-05-29T18:11:37;4.00;;;3.40;;
25129;SDS011;13308;50.860;13.664;2023-05-29T18:14:08;3.92;;;3.38;;
25129;SDS011;13308;50.860;13.664;2023-05-29T18:16:35;5.10;;;3.35;;
25129;SDS011;13308;50.860;13.664;2023-05-29T18:19:01;4.05;;;3.28;;
25129;SDS011;13308;50.860;13.664;2023-05-29T18:21:27;5.88;;;3.28;;
25129;SDS011;13308;50.860;13.664;2023-05-29T18:23:52;3.75;;;3.15;;
25129;SDS011;13308;50.860;13.664;2023-05-29T18:26:18;3.28;;;2.97;;
25129;SDS011;13308;50.860;13.664;2023-05-29T18:28:43;3.55;;;3.25;;
25129;SDS011;13308;50.860;13.664;2023-05-29T18:31:09;4.32;;;3.50;;
25129;SDS011;13308;50.860;13.664;2023-05-29T18:33:34;5.65;;;3.15;;
25129;SDS011;13308;50.860;13.664;2023-05-29T18:35:59;5.78;;;3.70;;
25129;SDS011;13308;50.860;13.664;2023-05-29T18:38:25;3.97;;;3.17;;
25129;SDS011;13308;50.860;13.664;2023-05-29T18:40:50;4.28;;;3.25;;
25129;SDS011;13308;50.860;13.664;2023-05-29T18:43:15;3.13;;;2.88;;
25129;SDS011;13308;50.860;13.664;2023-05-29T18:45:41;5.93;;;3.53;;
25129;SDS011;13308;50.860;13.664;2023-05-29T18:48:06;4.05;;;3.00;;
25129;SDS011;13308;50.860;13.664;2023-05-29T18:50:32;3.40;;;2.78;;
25129;SDS011;13308;50.860;13.664;2023-05-29T18:52:57;3.90;;;3.20;;
25129;SDS011;13308;50.860;13.664;2023-05-29T18:55:22;5.63;;;3.53;;
25129;SDS011;13308;50.860;13.664;2023-05-29T18:57:48;3.60;;;3.30;;
